^^
Saratoga-Weather Station Historical Data
Daily Summary for June 22, 2021 Units:  Both    English   Metric
Daily Weekly Monthly Yearly Custom
  High: Low: Average:
Temperature: 66.2 °F /  19 °C 59.7 °F /  15.4 °C 61.9 °F /  16.6 °C
Dew Point: 61.9 °F /  16.6 °C 56.3 °F /  13.5 °C 58.5 °F /  14.7 °C
Humidity: 95% 76% 89%
Wind Speed: 6mph /  9.7km/h - 1.2mph /  1.9km/h
Wind Gust: 8mph /  12.9km/h - -
Wind- - SSE
Pressure: 30 in /  1015.2 hPa 29.8 in /  1008.5 hPa -
Precipitation: 0.19 in /  4.8 mm    
Historical Graphs
 
 
Tabular Data for June 22, 2021
Time Temperature Dew Point Pressure Wind Wind Speed Wind Gust Humidity Rainfall Rate (Hourly) solar
00:02 66.2 °F /  19 °C 58.5 °F /  14.7 °C 29.8in /  1008.5hPa Calm   3mph /  4.8km/h 76% 0in /  0.0mm 0 W/m2
00:07 66 °F /  18.9 °C 58.3 °F /  14.6 °C 29.8in /  1008.5hPa NE 2mph /  3.2km/h 4mph /  6.4km/h 76% 0in /  0.0mm 0 W/m2
00:12 65.8 °F /  18.8 °C 58.1 °F /  14.5 °C 29.8in /  1008.5hPa West 2mph /  3.2km/h 6mph /  9.7km/h 76% 0in /  0.0mm 0 W/m2
00:17 65.8 °F /  18.8 °C 58.1 °F /  14.5 °C 29.8in /  1008.5hPa ENE 0.9mph /  1.4km/h 5mph /  8km/h 76% 0in /  0.0mm 0 W/m2
00:22 65.7 °F /  18.7 °C 58.3 °F /  14.6 °C 29.8in /  1008.5hPa West 0.9mph /  1.4km/h 4mph /  6.4km/h 77% 0in /  0.0mm 0 W/m2
00:27 65.5 °F /  18.6 °C 57.7 °F /  14.3 °C 29.8in /  1008.5hPa NE 0.9mph /  1.4km/h 3mph /  4.8km/h 76% 0in /  0.0mm 0 W/m2
00:32 65.5 °F /  18.6 °C 58.1 °F /  14.5 °C 29.8in /  1008.5hPa North 0.9mph /  1.4km/h 3mph /  4.8km/h 77% 0in /  0.0mm 0 W/m2
00:37 65.3 °F /  18.5 °C 57.9 °F /  14.4 °C 29.8in /  1008.5hPa SSW 0.9mph /  1.4km/h 3mph /  4.8km/h 77% 0in /  0.0mm 0 W/m2
00:42 65.1 °F /  18.4 °C 58.1 °F /  14.5 °C 29.8in /  1008.8hPa Calm   4mph /  6.4km/h 78% 0in /  0.0mm 0 W/m2
00:47 64.9 °F /  18.3 °C 57.9 °F /  14.4 °C 29.8in /  1008.8hPa ESE 2mph /  3.2km/h 3mph /  4.8km/h 78% 0in /  0.0mm 0 W/m2
00:52 64.9 °F /  18.3 °C 57.9 °F /  14.4 °C 29.8in /  1008.8hPa Calm   1mph /  1.6km/h 78% 0in /  0.0mm 0 W/m2
00:57 64.8 °F /  18.2 °C 58.1 °F /  14.5 °C 29.8in /  1009.1hPa ESE 2.9mph /  4.7km/h 4mph /  6.4km/h 79% 0in /  0.0mm 0 W/m2
01:02 64.8 °F /  18.2 °C 58.1 °F /  14.5 °C 29.8in /  1009.1hPa North 2mph /  3.2km/h 3mph /  4.8km/h 79% 0in /  0.0mm 0 W/m2
01:07 64.6 °F /  18.1 °C 58.3 °F /  14.6 °C 29.8in /  1009.1hPa Calm     80% 0in /  0.0mm 0 W/m2
01:12 64.6 °F /  18.1 °C 58.3 °F /  14.6 °C 29.8in /  1009.1hPa Calm   2mph /  3.2km/h 80% 0in /  0.0mm 0 W/m2
01:17 64.6 °F /  18.1 °C 58.3 °F /  14.6 °C 29.8in /  1009.1hPa NE 0.9mph /  1.4km/h 2mph /  3.2km/h 80% 0in /  0.0mm 0 W/m2
01:22 64.4 °F /  18 °C 58.1 °F /  14.5 °C 29.8in /  1009.1hPa Calm   1mph /  1.6km/h 80% 0in /  0.0mm 0 W/m2
01:27 64.4 °F /  18 °C 58.5 °F /  14.7 °C 29.8in /  1009.1hPa NE 2mph /  3.2km/h 3mph /  4.8km/h 81% 0in /  0.0mm 0 W/m2
01:32 64.2 °F /  17.9 °C 58.3 °F /  14.6 °C 29.8in /  1009.1hPa East 2mph /  3.2km/h 2mph /  3.2km/h 81% 0in /  0.0mm 0 W/m2
01:37 64 °F /  17.8 °C 58.5 °F /  14.7 °C 29.8in /  1009.1hPa Calm   2mph /  3.2km/h 82% 0in /  0.0mm 0 W/m2
01:42 63.9 °F /  17.7 °C 58.3 °F /  14.6 °C 29.8in /  1009.5hPa Calm   3mph /  4.8km/h 82% 0in /  0.0mm 0 W/m2
01:47 63.9 °F /  17.7 °C 58.6 °F /  14.8 °C 29.8in /  1009.5hPa ENE 0.9mph /  1.4km/h 4mph /  6.4km/h 83% 0in /  0.0mm 0 W/m2
01:52 63.7 °F /  17.6 °C 58.5 °F /  14.7 °C 29.8in /  1009.8hPa East 2.9mph /  4.7km/h 3mph /  4.8km/h 83% 0in /  0.0mm 0 W/m2
01:57 63.5 °F /  17.5 °C 58.3 °F /  14.6 °C 29.8in /  1009.5hPa NE 2mph /  3.2km/h 3mph /  4.8km/h 83% 0in /  0.0mm 0 W/m2
02:02 63.3 °F /  17.4 °C 58.5 °F /  14.7 °C 29.8in /  1009.5hPa ESE 2.9mph /  4.7km/h 4mph /  6.4km/h 84% 0in /  0.0mm 0 W/m2
02:07 63.3 °F /  17.4 °C 58.5 °F /  14.7 °C 29.8in /  1009.5hPa Calm   5mph /  8km/h 84% 0in /  0.0mm 0 W/m2
02:12 63.3 °F /  17.4 °C 58.5 °F /  14.7 °C 29.8in /  1009.8hPa East 0.9mph /  1.4km/h 2mph /  3.2km/h 84% 0in /  0.0mm 0 W/m2
02:17 63.1 °F /  17.3 °C 58.3 °F /  14.6 °C 29.8in /  1009.8hPa North 0.9mph /  1.4km/h 4mph /  6.4km/h 84% 0in /  0.0mm 0 W/m2
02:22 63.1 °F /  17.3 °C 58.3 °F /  14.6 °C 29.8in /  1009.8hPa Calm   5mph /  8km/h 84% 0in /  0.0mm 0 W/m2
02:28 63 °F /  17.2 °C 58.5 °F /  14.7 °C 29.8in /  1009.5hPa NE 0.9mph /  1.4km/h 2mph /  3.2km/h 85% 0in /  0.0mm 0 W/m2
02:33 62.8 °F /  17.1 °C 58.3 °F /  14.6 °C 29.8in /  1009.5hPa East 2.9mph /  4.7km/h 3mph /  4.8km/h 85% 0in /  0.0mm 0 W/m2
02:38 62.4 °F /  16.9 °C 57.9 °F /  14.4 °C 29.8in /  1009.5hPa ENE 0.9mph /  1.4km/h 6mph /  9.7km/h 85% 0in /  0.0mm 0 W/m2
02:43 62.2 °F /  16.8 °C 57.7 °F /  14.3 °C 29.8in /  1009.5hPa ESE 2mph /  3.2km/h 4mph /  6.4km/h 85% 0in /  0.0mm 0 W/m2
02:48 62.1 °F /  16.7 °C 57.7 °F /  14.3 °C 29.8in /  1009.1hPa ENE 2.9mph /  4.7km/h 5mph /  8km/h 86% 0in /  0.0mm 0 W/m2
02:53 61.9 °F /  16.6 °C 57.6 °F /  14.2 °C 29.8in /  1009.1hPa East 2mph /  3.2km/h 4mph /  6.4km/h 86% 0in /  0.0mm 0 W/m2
02:58 61.9 °F /  16.6 °C 57.6 °F /  14.2 °C 29.8in /  1009.1hPa Calm   3mph /  4.8km/h 86% 0in /  0.0mm 0 W/m2
03:03 61.7 °F /  16.5 °C 57.4 °F /  14.1 °C 29.8in /  1009.1hPa ESE 2mph /  3.2km/h 4mph /  6.4km/h 86% 0in /  0.0mm 0 W/m2
03:08 61.5 °F /  16.4 °C 57.6 °F /  14.2 °C 29.8in /  1009.1hPa NNW 2.9mph /  4.7km/h 4mph /  6.4km/h 87% 0in /  0.0mm 0 W/m2
03:13 61.5 °F /  16.4 °C 57.6 °F /  14.2 °C 29.8in /  1009.5hPa Calm   2mph /  3.2km/h 87% 0in /  0.0mm 0 W/m2
03:18 61.5 °F /  16.4 °C 57.6 °F /  14.2 °C 29.8in /  1009.5hPa ESE 2mph /  3.2km/h 4mph /  6.4km/h 87% 0in /  0.0mm 0 W/m2
03:23 61.5 °F /  16.4 °C 57.6 °F /  14.2 °C 29.8in /  1009.1hPa Calm   1mph /  1.6km/h 87% 0in /  0.0mm 0 W/m2
03:28 61.5 °F /  16.4 °C 57.6 °F /  14.2 °C 29.8in /  1009.1hPa WNW 0.9mph /  1.4km/h 3mph /  4.8km/h 87% 0in /  0.0mm 0 W/m2
03:33 61.5 °F /  16.4 °C 57.6 °F /  14.2 °C 29.8in /  1009.1hPa Calm   3mph /  4.8km/h 87% 0in /  0.0mm 0 W/m2
03:38 61.5 °F /  16.4 °C 57.6 °F /  14.2 °C 29.8in /  1009.1hPa NNW 2mph /  3.2km/h 3mph /  4.8km/h 87% 0in /  0.0mm 0 W/m2
03:43 61.5 °F /  16.4 °C 57.6 °F /  14.2 °C 29.8in /  1009.1hPa West 0.9mph /  1.4km/h 3mph /  4.8km/h 87% 0in /  0.0mm 0 W/m2
03:48 61.3 °F /  16.3 °C 57.4 °F /  14.1 °C 29.8in /  1009.1hPa ENE 2mph /  3.2km/h 4mph /  6.4km/h 87% 0in /  0.0mm 0 W/m2
03:53 61.3 °F /  16.3 °C 57.4 °F /  14.1 °C 29.8in /  1009.1hPa SE 2.9mph /  4.7km/h 4mph /  6.4km/h 87% 0in /  0.0mm 0 W/m2
03:58 61.3 °F /  16.3 °C 57.4 °F /  14.1 °C 29.8in /  1009.1hPa NNW 2.9mph /  4.7km/h 3mph /  4.8km/h 87% 0in /  0.0mm 0 W/m2
04:03 61.2 °F /  16.2 °C 57.2 °F /  14 °C 29.8in /  1009.1hPa Calm   3mph /  4.8km/h 87% 0in /  0.0mm 0 W/m2
04:08 61.2 °F /  16.2 °C 57.2 °F /  14 °C 29.8in /  1009.1hPa ESE 2mph /  3.2km/h 2mph /  3.2km/h 87% 0in /  0.0mm 0 W/m2
04:13 61.2 °F /  16.2 °C 57.2 °F /  14 °C 29.8in /  1009.1hPa East 2mph /  3.2km/h 5mph /  8km/h 87% 0in /  0.0mm 0 W/m2
04:18 61.2 °F /  16.2 °C 57.2 °F /  14 °C 29.8in /  1009.1hPa ESE 2mph /  3.2km/h 4mph /  6.4km/h 87% 0in /  0.0mm 0 W/m2
04:23 61.2 °F /  16.2 °C 57.2 °F /  14 °C 29.8in /  1009.1hPa East 2mph /  3.2km/h 3mph /  4.8km/h 87% 0in /  0.0mm 0 W/m2
04:28 61.2 °F /  16.2 °C 57.2 °F /  14 °C 29.8in /  1008.8hPa Calm   2mph /  3.2km/h 87% 0in /  0.0mm 0 W/m2
04:33 61.2 °F /  16.2 °C 57.2 °F /  14 °C 29.8in /  1008.8hPa NE 0.9mph /  1.4km/h 6mph /  9.7km/h 87% 0in /  0.0mm 0 W/m2
04:38 61 °F /  16.1 °C 57 °F /  13.9 °C 29.8in /  1009.1hPa NE 4mph /  6.4km/h 4mph /  6.4km/h 87% 0in /  0.0mm 0 W/m2
04:43 61 °F /  16.1 °C 57 °F /  13.9 °C 29.8in /  1009.1hPa Calm   2mph /  3.2km/h 87% 0in /  0.0mm 0 W/m2
04:48 61 °F /  16.1 °C 57.4 °F /  14.1 °C 29.8in /  1009.1hPa East 2mph /  3.2km/h 3mph /  4.8km/h 88% 0in /  0.0mm 0 W/m2
04:53 61 °F /  16.1 °C 57 °F /  13.9 °C 29.8in /  1009.1hPa North 4mph /  6.4km/h 4mph /  6.4km/h 87% 0in /  0.0mm 0 W/m2
04:58 61 °F /  16.1 °C 57 °F /  13.9 °C 29.8in /  1009.1hPa NE 0.9mph /  1.4km/h 4mph /  6.4km/h 87% 0in /  0.0mm 0 W/m2
05:03 60.6 °F /  15.9 °C 56.7 °F /  13.7 °C 29.8in /  1009.1hPa WNW 0.9mph /  1.4km/h 4mph /  6.4km/h 87% 0in /  0.0mm 0 W/m2
05:08 60.6 °F /  15.9 °C 57 °F /  13.9 °C 29.8in /  1009.5hPa ENE 0.9mph /  1.4km/h 4mph /  6.4km/h 88% 0in /  0.0mm 0 W/m2
05:13 60.4 °F /  15.8 °C 56.8 °F /  13.8 °C 29.8in /  1009.5hPa Calm   3mph /  4.8km/h 88% 0in /  0.0mm 0 W/m2
05:18 60.4 °F /  15.8 °C 56.8 °F /  13.8 °C 29.8in /  1009.5hPa East 2mph /  3.2km/h 3mph /  4.8km/h 88% 0in /  0.0mm 0 W/m2
05:23 60.4 °F /  15.8 °C 56.8 °F /  13.8 °C 29.8in /  1009.8hPa North 0.9mph /  1.4km/h 5mph /  8km/h 88% 0in /  0.0mm 0 W/m2
05:28 60.3 °F /  15.7 °C 56.7 °F /  13.7 °C 29.8in /  1009.8hPa Calm   1mph /  1.6km/h 88% 0in /  0.0mm 0 W/m2
05:33 60.3 °F /  15.7 °C 56.7 °F /  13.7 °C 29.8in /  1009.8hPa NNE 2mph /  3.2km/h 5mph /  8km/h 88% 0in /  0.0mm 0 W/m2
05:38 60.3 °F /  15.7 °C 56.7 °F /  13.7 °C 29.8in /  1009.5hPa Calm   1mph /  1.6km/h 88% 0in /  0.0mm 0 W/m2
05:43 60.3 °F /  15.7 °C 56.7 °F /  13.7 °C 29.8in /  1009.5hPa NW 0.9mph /  1.4km/h 4mph /  6.4km/h 88% 0in /  0.0mm 0 W/m2
05:48 60.3 °F /  15.7 °C 56.7 °F /  13.7 °C 29.8in /  1009.5hPa Calm   2mph /  3.2km/h 88% 0in /  0.0mm 0 W/m2
05:53 60.3 °F /  15.7 °C 56.7 °F /  13.7 °C 29.8in /  1009.8hPa North 2mph /  3.2km/h 5mph /  8km/h 88% 0in /  0.0mm 0 W/m2
05:58 60.1 °F /  15.6 °C 56.5 °F /  13.6 °C 29.8in /  1009.8hPa NNW 0.9mph /  1.4km/h 3mph /  4.8km/h 88% 0in /  0.0mm 0 W/m2
06:03 60.1 °F /  15.6 °C 56.5 °F /  13.6 °C 29.8in /  1009.5hPa West 2mph /  3.2km/h 5mph /  8km/h 88% 0in /  0.0mm 5 W/m2
06:08 60.1 °F /  15.6 °C 56.5 °F /  13.6 °C 29.8in /  1009.5hPa NNE 2mph /  3.2km/h 3mph /  4.8km/h 88% 0in /  0.0mm 7 W/m2
06:13 59.9 °F /  15.5 °C 56.3 °F /  13.5 °C 29.8in /  1009.5hPa ENE 0.9mph /  1.4km/h 3mph /  4.8km/h 88% 0in /  0.0mm 5 W/m2
06:18 59.9 °F /  15.5 °C 56.3 °F /  13.5 °C 29.8in /  1009.5hPa Calm   3mph /  4.8km/h 88% 0in /  0.0mm 7 W/m2
06:23 59.9 °F /  15.5 °C 56.3 °F /  13.5 °C 29.8in /  1009.5hPa Calm   2mph /  3.2km/h 88% 0in /  0.0mm 11 W/m2
06:28 59.9 °F /  15.5 °C 56.3 °F /  13.5 °C 29.8in /  1009.5hPa Calm   2mph /  3.2km/h 88% 0in /  0.0mm 12 W/m2
06:33 59.9 °F /  15.5 °C 56.3 °F /  13.5 °C 29.8in /  1009.8hPa ENE 2mph /  3.2km/h 5mph /  8km/h 88% 0in /  0.0mm 12 W/m2
06:38 59.9 °F /  15.5 °C 56.3 °F /  13.5 °C 29.8in /  1009.5hPa Calm   2mph /  3.2km/h 88% 0in /  0.0mm 11 W/m2
06:43 60.1 °F /  15.6 °C 56.5 °F /  13.6 °C 29.8in /  1009.8hPa Calm   5mph /  8km/h 88% 0in /  0.0mm 12 W/m2
06:48 60.1 °F /  15.6 °C 56.5 °F /  13.6 °C 29.8in /  1009.8hPa Calm   7mph /  11.3km/h 88% 0in /  0.0mm 16 W/m2
06:53 60.1 °F /  15.6 °C 56.5 °F /  13.6 °C 29.8in /  1010.2hPa ENE 0.9mph /  1.4km/h 1mph /  1.6km/h 88% 0in /  0.0mm 16 W/m2
06:58 60.1 °F /  15.6 °C 56.5 °F /  13.6 °C 29.8in /  1010.2hPa ENE 0.9mph /  1.4km/h 5mph /  8km/h 88% 0in /  0.0mm 12 W/m2
07:03 60.1 °F /  15.6 °C 56.5 °F /  13.6 °C 29.8in /  1009.8hPa Calm   1mph /  1.6km/h 88% 0in /  0.0mm 16 W/m2
07:08 60.1 °F /  15.6 °C 56.5 °F /  13.6 °C 29.8in /  1009.8hPa East 0.9mph /  1.4km/h 5mph /  8km/h 88% 0in /  0.0mm 23 W/m2
07:13 60.1 °F /  15.6 °C 56.5 °F /  13.6 °C 29.8in /  1010.2hPa ENE 2mph /  3.2km/h 6mph /  9.7km/h 88% 0in /  0.0mm 21 W/m2
07:18 60.1 °F /  15.6 °C 56.5 °F /  13.6 °C 29.8in /  1010.2hPa Calm   2mph /  3.2km/h 88% 0in /  0.0mm 25 W/m2
07:23 60.3 °F /  15.7 °C 56.7 °F /  13.7 °C 29.8in /  1010.2hPa NW 0.9mph /  1.4km/h 2mph /  3.2km/h 88% 0in /  0.0mm 26 W/m2
07:28 60.3 °F /  15.7 °C 56.7 °F /  13.7 °C 29.8in /  1010.2hPa East 2.9mph /  4.7km/h 4mph /  6.4km/h 88% 0in /  0.0mm 30 W/m2
07:34 60.3 °F /  15.7 °C 56.3 °F /  13.5 °C 29.8in /  1010.2hPa Calm   2mph /  3.2km/h 87% 0in /  0.0mm 32 W/m2
07:39 60.3 °F /  15.7 °C 56.3 °F /  13.5 °C 29.8in /  1010.2hPa West 4mph /  6.4km/h 4mph /  6.4km/h 87% 0in /  0.0mm 35 W/m2
07:44 60.4 °F /  15.8 °C 56.5 °F /  13.6 °C 29.8in /  1010.2hPa East 0.9mph /  1.4km/h 3mph /  4.8km/h 87% 0in /  0.0mm 35 W/m2
07:49 60.4 °F /  15.8 °C 56.5 °F /  13.6 °C 29.8in /  1010.2hPa SE 2mph /  3.2km/h 3mph /  4.8km/h 87% 0in /  0.0mm 40 W/m2
07:54 60.4 °F /  15.8 °C 56.5 °F /  13.6 °C 29.8in /  1010.2hPa NW 0.9mph /  1.4km/h 5mph /  8km/h 87% 0in /  0.0mm 37 W/m2
07:59 60.4 °F /  15.8 °C 56.5 °F /  13.6 °C 29.8in /  1010.2hPa ENE 0.9mph /  1.4km/h 5mph /  8km/h 87% 0in /  0.0mm 30 W/m2
08:04 60.4 °F /  15.8 °C 56.5 °F /  13.6 °C 29.8in /  1010.2hPa ENE 2mph /  3.2km/h 2mph /  3.2km/h 87% 0in /  0.0mm 30 W/m2
08:09 60.6 °F /  15.9 °C 56.7 °F /  13.7 °C 29.8in /  1010.2hPa ENE 2mph /  3.2km/h 7mph /  11.3km/h 87% 0in /  0.0mm 28 W/m2
08:14 60.6 °F /  15.9 °C 56.7 °F /  13.7 °C 29.8in /  1010.2hPa East 2mph /  3.2km/h 6mph /  9.7km/h 87% 0in /  0.0mm 32 W/m2
08:19 60.6 °F /  15.9 °C 56.7 °F /  13.7 °C 29.8in /  1010.2hPa NE 2mph /  3.2km/h 7mph /  11.3km/h 87% 0in /  0.0mm 30 W/m2
08:24 60.6 °F /  15.9 °C 56.7 °F /  13.7 °C 29.8in /  1010.2hPa ENE 2mph /  3.2km/h 4mph /  6.4km/h 87% 0in /  0.0mm 33 W/m2
08:29 60.6 °F /  15.9 °C 56.7 °F /  13.7 °C 29.8in /  1010.2hPa ESE 2mph /  3.2km/h 7mph /  11.3km/h 87% 0in /  0.0mm 37 W/m2
08:34 60.6 °F /  15.9 °C 56.7 °F /  13.7 °C 29.8in /  1010.2hPa East 2.9mph /  4.7km/h 6mph /  9.7km/h 87% 0in /  0.0mm 39 W/m2
08:39 60.6 °F /  15.9 °C 57 °F /  13.9 °C 29.8in /  1010.2hPa East 0.9mph /  1.4km/h 1mph /  1.6km/h 88% 0in /  0.0mm 33 W/m2
08:44 60.6 °F /  15.9 °C 56.7 °F /  13.7 °C 29.8in /  1010.2hPa ENE 2.9mph /  4.7km/h 6mph /  9.7km/h 87% 0in /  0.0mm 32 W/m2
08:49 60.8 °F /  16 °C 56.8 °F /  13.8 °C 29.8in /  1010.2hPa ENE 2mph /  3.2km/h 8mph /  12.9km/h 87% 0in /  0.0mm 35 W/m2
08:54 61 °F /  16.1 °C 57 °F /  13.9 °C 29.8in /  1010.5hPa East 2mph /  3.2km/h 6mph /  9.7km/h 87% 0in /  0.0mm 42 W/m2
08:59 61 °F /  16.1 °C 57 °F /  13.9 °C 29.8in /  1010.5hPa ESE 2mph /  3.2km/h 7mph /  11.3km/h 87% 0in /  0.0mm 37 W/m2
09:04 61 °F /  16.1 °C 57 °F /  13.9 °C 29.8in /  1010.5hPa NNE 0.9mph /  1.4km/h 3mph /  4.8km/h 87% 0in /  0.0mm 35 W/m2
09:09 61 °F /  16.1 °C 57 °F /  13.9 °C 29.8in /  1010.5hPa ENE 2mph /  3.2km/h 3mph /  4.8km/h 87% 0in /  0.0mm 37 W/m2
09:14 61.2 °F /  16.2 °C 57.6 °F /  14.2 °C 29.8in /  1010.5hPa ESE 2.9mph /  4.7km/h 6mph /  9.7km/h 88% 0in /  0.0mm 33 W/m2
09:19 61.2 °F /  16.2 °C 57.6 °F /  14.2 °C 29.9in /  1010.8hPa Calm   2mph /  3.2km/h 88% 0in /  0.0mm 33 W/m2
09:24 61.2 °F /  16.2 °C 57.6 °F /  14.2 °C 29.9in /  1010.8hPa ENE 2mph /  3.2km/h 2mph /  3.2km/h 88% 0in /  0.0mm 35 W/m2
09:29 61.2 °F /  16.2 °C 57.6 °F /  14.2 °C 29.9in /  1010.8hPa Calm   3mph /  4.8km/h 88% 0in /  0.0mm 40 W/m2
09:34 61.2 °F /  16.2 °C 57.6 °F /  14.2 °C 29.9in /  1010.8hPa NNW 0.9mph /  1.4km/h 2mph /  3.2km/h 88% 0in /  0.0mm 44 W/m2
09:39 61.2 °F /  16.2 °C 57.6 °F /  14.2 °C 29.9in /  1010.8hPa North 2mph /  3.2km/h 3mph /  4.8km/h 88% 0in /  0.0mm 49 W/m2
09:44 61.2 °F /  16.2 °C 57.2 °F /  14 °C 29.9in /  1010.8hPa NNW 0.9mph /  1.4km/h 3mph /  4.8km/h 87% 0in /  0.0mm 44 W/m2
09:49 61.2 °F /  16.2 °C 57.2 °F /  14 °C 29.9in /  1010.8hPa NNW 0.9mph /  1.4km/h 2mph /  3.2km/h 87% 0in /  0.0mm 39 W/m2
09:54 61.2 °F /  16.2 °C 57.2 °F /  14 °C 29.9in /  1010.8hPa Calm   1mph /  1.6km/h 87% 0in /  0.0mm 33 W/m2
09:59 61.2 °F /  16.2 °C 57.2 °F /  14 °C 29.9in /  1010.8hPa ENE 0.9mph /  1.4km/h 4mph /  6.4km/h 87% 0in /  0.0mm 39 W/m2
10:04 61.3 °F /  16.3 °C 57.4 °F /  14.1 °C 29.9in /  1010.8hPa Calm   3mph /  4.8km/h 87% 0in /  0.0mm 39 W/m2
10:09 61.2 °F /  16.2 °C 57.2 °F /  14 °C 29.9in /  1010.8hPa East 0.9mph /  1.4km/h 5mph /  8km/h 87% 0in /  0.0mm 44 W/m2
10:14 61.2 °F /  16.2 °C 57.2 °F /  14 °C 29.9in /  1010.8hPa NE 0.9mph /  1.4km/h 3mph /  4.8km/h 87% 0in /  0.0mm 46 W/m2
10:19 61.2 °F /  16.2 °C 57.2 °F /  14 °C 29.9in /  1010.8hPa Calm   5mph /  8km/h 87% 0in /  0.0mm 54 W/m2
10:24 61.2 °F /  16.2 °C 57.2 °F /  14 °C 29.9in /  1010.8hPa North 0.9mph /  1.4km/h 4mph /  6.4km/h 87% 0in /  0.0mm 63 W/m2
10:29 61.2 °F /  16.2 °C 57.2 °F /  14 °C 29.9in /  1010.8hPa NE 2mph /  3.2km/h 2mph /  3.2km/h 87% 0in /  0.0mm 65 W/m2
10:34 61.3 °F /  16.3 °C 57.4 °F /  14.1 °C 29.9in /  1010.8hPa North 0.9mph /  1.4km/h 4mph /  6.4km/h 87% 0in /  0.0mm 72 W/m2
10:39 61.3 °F /  16.3 °C 57.4 °F /  14.1 °C 29.9in /  1011.2hPa Calm   2mph /  3.2km/h 87% 0in /  0.0mm 67 W/m2
10:44 61.3 °F /  16.3 °C 57.4 °F /  14.1 °C 29.9in /  1011.2hPa ESE 0.9mph /  1.4km/h 4mph /  6.4km/h 87% 0in /  0.0mm 58 W/m2
10:49 61.2 °F /  16.2 °C 57.2 °F /  14 °C 29.9in /  1011.2hPa WNW 4mph /  6.4km/h 4mph /  6.4km/h 87% 0in /  0.0mm 53 W/m2
10:54 61.2 °F /  16.2 °C 57.2 °F /  14 °C 29.9in /  1011.2hPa WSW 2mph /  3.2km/h 2mph /  3.2km/h 87% 0in /  0.0mm 54 W/m2
10:59 61.2 °F /  16.2 °C 57.2 °F /  14 °C 29.9in /  1011.2hPa NW 2mph /  3.2km/h 4mph /  6.4km/h 87% 0in /  0.0mm 60 W/m2
11:04 61.2 °F /  16.2 °C 57.2 °F /  14 °C 29.9in /  1011.2hPa Calm   3mph /  4.8km/h 87% 0in /  0.0mm 60 W/m2
11:09 61.3 °F /  16.3 °C 57.4 °F /  14.1 °C 29.9in /  1011.2hPa North 2mph /  3.2km/h 4mph /  6.4km/h 87% 0in /  0.0mm 65 W/m2
11:14 61.3 °F /  16.3 °C 57.4 °F /  14.1 °C 29.9in /  1011.2hPa ESE 2mph /  3.2km/h 3mph /  4.8km/h 87% 0in /  0.0mm 67 W/m2
11:19 61.3 °F /  16.3 °C 57.4 °F /  14.1 °C 29.9in /  1011.2hPa ENE 0.9mph /  1.4km/h 5mph /  8km/h 87% 0in /  0.0mm 65 W/m2
11:24 61.3 °F /  16.3 °C 57.7 °F /  14.3 °C 29.9in /  1011.2hPa NNE 2mph /  3.2km/h 4mph /  6.4km/h 88% 0in /  0.0mm 67 W/m2
11:29 61.3 °F /  16.3 °C 57.7 °F /  14.3 °C 29.9in /  1011.2hPa Calm   3mph /  4.8km/h 88% 0in /  0.0mm 79 W/m2
11:34 61.3 °F /  16.3 °C 57.7 °F /  14.3 °C 29.9in /  1011.2hPa North 2mph /  3.2km/h 4mph /  6.4km/h 88% 0in /  0.0mm 84 W/m2
11:39 61.3 °F /  16.3 °C 58.1 °F /  14.5 °C 29.9in /  1011.2hPa NW 2.9mph /  4.7km/h 3mph /  4.8km/h 89% 0in /  0.0mm 90 W/m2
11:44 61.2 °F /  16.2 °C 57.9 °F /  14.4 °C 29.9in /  1011.2hPa ENE 2mph /  3.2km/h 4mph /  6.4km/h 89% 0in /  0.0mm 83 W/m2
11:49 61.2 °F /  16.2 °C 58.3 °F /  14.6 °C 29.9in /  1011.2hPa East 0.9mph /  1.4km/h 1mph /  1.6km/h 90% 0in /  0.0mm 76 W/m2
11:54 61.2 °F /  16.2 °C 58.5 °F /  14.7 °C 29.9in /  1011.5hPa NW 0.9mph /  1.4km/h 3mph /  4.8km/h 91% 0in /  0.0mm 74 W/m2
11:59 61.2 °F /  16.2 °C 58.5 °F /  14.7 °C 29.9in /  1011.2hPa ENE 0.9mph /  1.4km/h 5mph /  8km/h 91% 0in /  0.0mm 84 W/m2
12:04 61 °F /  16.1 °C 58.6 °F /  14.8 °C 29.9in /  1011.5hPa ESE 2.9mph /  4.7km/h 3mph /  4.8km/h 92% 0in /  0.0mm 69 W/m2
12:09 60.8 °F /  16 °C 58.5 °F /  14.7 °C 29.9in /  1011.5hPa Calm   4mph /  6.4km/h 92% 0in /  0.0mm 69 W/m2
12:14 60.4 °F /  15.8 °C 58.1 °F /  14.5 °C 29.9in /  1011.5hPa NW 0.9mph /  1.4km/h 3mph /  4.8km/h 92% 0in /  0.0mm 67 W/m2
12:19 60.3 °F /  15.7 °C 57.9 °F /  14.4 °C 29.9in /  1011.5hPa North 0.9mph /  1.4km/h 3mph /  4.8km/h 92% 0in /  0.0mm 70 W/m2
12:24 60.3 °F /  15.7 °C 57.9 °F /  14.4 °C 29.9in /  1011.5hPa Calm   2mph /  3.2km/h 92% 0in /  0.0mm 72 W/m2
12:29 60.1 °F /  15.6 °C 58.1 °F /  14.5 °C 29.9in /  1011.5hPa Calm   2mph /  3.2km/h 93% 0in /  0.0mm 60 W/m2
12:34 60.1 °F /  15.6 °C 58.1 °F /  14.5 °C 29.9in /  1011.5hPa ENE 0.9mph /  1.4km/h 2mph /  3.2km/h 93% 0in /  0.0mm 56 W/m2
12:39 59.9 °F /  15.5 °C 57.9 °F /  14.4 °C 29.9in /  1011.9hPa Calm   3mph /  4.8km/h 93% 0in /  0.0mm 46 W/m2
12:44 59.7 °F /  15.4 °C 57.7 °F /  14.3 °C 29.9in /  1011.9hPa WNW 2mph /  3.2km/h 2mph /  3.2km/h 93% 0in /  0.0mm 44 W/m2
12:49 59.7 °F /  15.4 °C 57.7 °F /  14.3 °C 29.9in /  1011.9hPa Calm   3mph /  4.8km/h 93% 0.01in /  0.2mm 49 W/m2
12:54 59.7 °F /  15.4 °C 57.9 °F /  14.4 °C 29.9in /  1011.9hPa East 2mph /  3.2km/h 3mph /  4.8km/h 94% 0.01in /  0.2mm 70 W/m2
12:59 59.7 °F /  15.4 °C 57.9 °F /  14.4 °C 29.9in /  1011.9hPa NE 2mph /  3.2km/h 4mph /  6.4km/h 94% 0.02in /  0.5mm 54 W/m2
13:04 59.7 °F /  15.4 °C 57.9 °F /  14.4 °C 29.9in /  1011.9hPa Calm   3mph /  4.8km/h 94% 0.02in /  0.5mm 62 W/m2
13:10 59.7 °F /  15.4 °C 57.9 °F /  14.4 °C 29.9in /  1011.9hPa WNW 2mph /  3.2km/h 4mph /  6.4km/h 94% 0.02in /  0.5mm 63 W/m2
13:15 59.7 °F /  15.4 °C 57.9 °F /  14.4 °C 29.9in /  1011.9hPa WNW 0.9mph /  1.4km/h 2mph /  3.2km/h 94% 0.02in /  0.5mm 67 W/m2
13:20 59.7 °F /  15.4 °C 57.9 °F /  14.4 °C 29.9in /  1011.9hPa WNW 0.9mph /  1.4km/h 1mph /  1.6km/h 94% 0.02in /  0.5mm 69 W/m2
13:25 59.7 °F /  15.4 °C 57.9 °F /  14.4 °C 29.9in /  1011.5hPa NNE 2mph /  3.2km/h 4mph /  6.4km/h 94% 0.02in /  0.5mm 107 W/m2
13:30 59.9 °F /  15.5 °C 58.1 °F /  14.5 °C 29.9in /  1011.5hPa Calm   2mph /  3.2km/h 94% 0.02in /  0.5mm 120 W/m2
13:35 60.1 °F /  15.6 °C 58.3 °F /  14.6 °C 29.9in /  1011.5hPa Calm   2mph /  3.2km/h 94% 0.03in /  0.8mm 165 W/m2
13:40 60.1 °F /  15.6 °C 58.3 °F /  14.6 °C 29.9in /  1011.5hPa Calm   2mph /  3.2km/h 94% 0.03in /  0.8mm 128 W/m2
13:45 60.3 °F /  15.7 °C 58.8 °F /  14.9 °C 29.9in /  1011.5hPa North 0.9mph /  1.4km/h 3mph /  4.8km/h 95% 0.02in /  0.5mm 113 W/m2
13:50 60.4 °F /  15.8 °C 59 °F /  15 °C 29.9in /  1011.5hPa NE 0.9mph /  1.4km/h 3mph /  4.8km/h 95% 0.03in /  0.8mm 123 W/m2
13:55 60.4 °F /  15.8 °C 59 °F /  15 °C 29.9in /  1011.5hPa West 2mph /  3.2km/h 4mph /  6.4km/h 95% 0.04in /  1.0mm 100 W/m2
14:00 60.4 °F /  15.8 °C 58.6 °F /  14.8 °C 29.9in /  1011.5hPa Calm   2mph /  3.2km/h 94% 0.04in /  1.0mm 47 W/m2
14:05 60.4 °F /  15.8 °C 58.6 °F /  14.8 °C 29.9in /  1011.5hPa Calm   4mph /  6.4km/h 94% 0.05in /  1.3mm 54 W/m2
14:10 60.4 °F /  15.8 °C 58.6 °F /  14.8 °C 29.9in /  1011.5hPa Calm     94% 0.05in /  1.3mm 69 W/m2
14:15 60.4 °F /  15.8 °C 58.6 °F /  14.8 °C 29.9in /  1011.5hPa Calm   4mph /  6.4km/h 94% 0.04in /  1.0mm 49 W/m2
14:20 60.4 °F /  15.8 °C 58.6 °F /  14.8 °C 29.9in /  1011.5hPa NNW 0.9mph /  1.4km/h 2mph /  3.2km/h 94% 0.04in /  1.0mm 44 W/m2
14:25 60.4 °F /  15.8 °C 58.6 °F /  14.8 °C 29.9in /  1011.5hPa East 2mph /  3.2km/h 2mph /  3.2km/h 94% 0.04in /  1.0mm 44 W/m2
14:30 60.4 °F /  15.8 °C 58.6 °F /  14.8 °C 29.9in /  1011.9hPa West 4mph /  6.4km/h 5mph /  8km/h 94% 0.04in /  1.0mm 39 W/m2
14:35 60.4 °F /  15.8 °C 58.6 °F /  14.8 °C 29.9in /  1011.9hPa Calm     94% 0.04in /  1.0mm 49 W/m2
14:40 60.4 °F /  15.8 °C 58.6 °F /  14.8 °C 29.9in /  1011.9hPa SE 2mph /  3.2km/h 5mph /  8km/h 94% 0.04in /  1.0mm 67 W/m2
14:45 60.4 °F /  15.8 °C 58.6 °F /  14.8 °C 29.9in /  1011.9hPa NNE 0.9mph /  1.4km/h 3mph /  4.8km/h 94% 0.04in /  1.0mm 72 W/m2
14:50 60.6 °F /  15.9 °C 58.8 °F /  14.9 °C 29.9in /  1011.9hPa NE 2mph /  3.2km/h 2mph /  3.2km/h 94% 0.03in /  0.8mm 51 W/m2
14:55 60.6 °F /  15.9 °C 58.8 °F /  14.9 °C 29.9in /  1011.9hPa Calm   2mph /  3.2km/h 94% 0.02in /  0.5mm 39 W/m2
15:00 60.6 °F /  15.9 °C 58.8 °F /  14.9 °C 29.9in /  1011.9hPa Calm   1mph /  1.6km/h 94% 0.02in /  0.5mm 19 W/m2
15:05 60.6 °F /  15.9 °C 58.8 °F /  14.9 °C 29.9in /  1012.2hPa West 0.9mph /  1.4km/h 2mph /  3.2km/h 94% 0.01in /  0.2mm 11 W/m2
15:10 60.6 °F /  15.9 °C 58.8 °F /  14.9 °C 29.9in /  1012.2hPa NW 0.9mph /  1.4km/h 2mph /  3.2km/h 94% 0.01in /  0.2mm 14 W/m2
15:15 60.6 °F /  15.9 °C 58.8 °F /  14.9 °C 29.9in /  1011.9hPa Calm   1mph /  1.6km/h 94% 0.06in /  1.5mm 19 W/m2
15:20 60.4 °F /  15.8 °C 58.6 °F /  14.8 °C 29.9in /  1012.2hPa Calm   1mph /  1.6km/h 94% 0.09in /  2.3mm 14 W/m2
15:25 60.4 °F /  15.8 °C 58.6 °F /  14.8 °C 29.9in /  1012.2hPa ENE 0.9mph /  1.4km/h 1mph /  1.6km/h 94% 0.1in /  2.5mm 18 W/m2
15:30 60.4 °F /  15.8 °C 58.6 °F /  14.8 °C 29.9in /  1012.2hPa NNW 0.9mph /  1.4km/h 3mph /  4.8km/h 94% 0.09in /  2.3mm 18 W/m2
15:35 60.4 °F /  15.8 °C 58.6 °F /  14.8 °C 29.9in /  1011.9hPa Calm   2mph /  3.2km/h 94% 0.1in /  2.5mm 19 W/m2
15:40 60.4 °F /  15.8 °C 58.6 °F /  14.8 °C 29.9in /  1011.9hPa East 0.9mph /  1.4km/h 3mph /  4.8km/h 94% 0.1in /  2.5mm 21 W/m2
15:45 60.3 °F /  15.7 °C 58.5 °F /  14.7 °C 29.9in /  1011.9hPa SSE 2mph /  3.2km/h 2mph /  3.2km/h 94% 0.1in /  2.5mm 26 W/m2
15:50 60.3 °F /  15.7 °C 58.5 °F /  14.7 °C 29.9in /  1012.2hPa WSW 0.9mph /  1.4km/h 3mph /  4.8km/h 94% 0.1in /  2.5mm 32 W/m2
15:55 60.3 °F /  15.7 °C 58.8 °F /  14.9 °C 29.9in /  1012.2hPa Calm   3mph /  4.8km/h 95% 0.11in /  2.8mm 39 W/m2
16:00 60.3 °F /  15.7 °C 58.8 °F /  14.9 °C 29.9in /  1011.9hPa NNW 2mph /  3.2km/h 2mph /  3.2km/h 95% 0.11in /  2.8mm 47 W/m2
16:05 60.4 °F /  15.8 °C 59 °F /  15 °C 29.9in /  1011.9hPa West 2mph /  3.2km/h 3mph /  4.8km/h 95% 0.11in /  2.8mm 56 W/m2
16:10 60.4 °F /  15.8 °C 59 °F /  15 °C 29.9in /  1011.9hPa WNW 0.9mph /  1.4km/h 4mph /  6.4km/h 95% 0.11in /  2.8mm 44 W/m2
16:15 60.4 °F /  15.8 °C 59 °F /  15 °C 29.9in /  1012.2hPa Calm   1mph /  1.6km/h 95% 0.06in /  1.5mm 54 W/m2
16:20 60.4 °F /  15.8 °C 59 °F /  15 °C 29.9in /  1012.2hPa West 2mph /  3.2km/h 4mph /  6.4km/h 95% 0.02in /  0.5mm 88 W/m2
16:25 60.4 °F /  15.8 °C 59 °F /  15 °C 29.9in /  1012.2hPa West 2mph /  3.2km/h 4mph /  6.4km/h 95% 0.02in /  0.5mm 81 W/m2
16:30 60.4 °F /  15.8 °C 59 °F /  15 °C 29.9in /  1012.2hPa West 0.9mph /  1.4km/h 4mph /  6.4km/h 95% 0.02in /  0.5mm 88 W/m2
16:35 60.6 °F /  15.9 °C 59.2 °F /  15.1 °C 29.9in /  1012.2hPa WNW 2mph /  3.2km/h 3mph /  4.8km/h 95% 0.01in /  0.2mm 130 W/m2
16:40 60.6 °F /  15.9 °C 59.2 °F /  15.1 °C 29.9in /  1012.2hPa WNW 2mph /  3.2km/h 2mph /  3.2km/h 95% 0.01in /  0.2mm 127 W/m2
16:45 61 °F /  16.1 °C 59.5 °F /  15.3 °C 29.9in /  1012.2hPa WNW 2.9mph /  4.7km/h 4mph /  6.4km/h 95% 0.01in /  0.2mm 116 W/m2
16:50 61 °F /  16.1 °C 59.5 °F /  15.3 °C 29.9in /  1012.2hPa WNW 0.9mph /  1.4km/h 2mph /  3.2km/h 95% 0.01in /  0.2mm 102 W/m2
16:55 61 °F /  16.1 °C 59.5 °F /  15.3 °C 29.9in /  1012.2hPa Calm   2mph /  3.2km/h 95% 0in /  0.0mm 105 W/m2
17:01 61.2 °F /  16.2 °C 59.4 °F /  15.2 °C 29.9in /  1012.5hPa Calm     94% 0in /  0.0mm 116 W/m2
17:06 61.3 °F /  16.3 °C 59.5 °F /  15.3 °C 29.9in /  1012.9hPa Calm   2mph /  3.2km/h 94% 0in /  0.0mm 90 W/m2
17:11 61.3 °F /  16.3 °C 59.5 °F /  15.3 °C 29.9in /  1012.9hPa Calm   1mph /  1.6km/h 94% 0in /  0.0mm 97 W/m2
17:16 61.5 °F /  16.4 °C 59.7 °F /  15.4 °C 29.9in /  1012.9hPa Calm   2mph /  3.2km/h 94% 0.01in /  0.2mm 104 W/m2
17:21 61.5 °F /  16.4 °C 59.7 °F /  15.4 °C 29.9in /  1012.9hPa Calm   1mph /  1.6km/h 94% 0.01in /  0.2mm 120 W/m2
17:26 61.9 °F /  16.6 °C 60.1 °F /  15.6 °C 29.9in /  1012.5hPa Calm   2mph /  3.2km/h 94% 0.01in /  0.2mm 130 W/m2
17:31 61.9 °F /  16.6 °C 60.1 °F /  15.6 °C 29.9in /  1012.5hPa Calm   1mph /  1.6km/h 94% 0.01in /  0.2mm 121 W/m2
17:36 62.1 °F /  16.7 °C 60.3 °F /  15.7 °C 29.9in /  1012.5hPa Calm   1mph /  1.6km/h 94% 0.01in /  0.2mm 134 W/m2
17:41 62.2 °F /  16.8 °C 60.3 °F /  15.7 °C 29.9in /  1012.5hPa West 2mph /  3.2km/h 2mph /  3.2km/h 93% 0.01in /  0.2mm 461 W/m2
17:46 62.8 °F /  17.1 °C 61 °F /  16.1 °C 29.9in /  1012.5hPa NW 0.9mph /  1.4km/h 3mph /  4.8km/h 94% 0.01in /  0.2mm 304 W/m2
17:51 63.1 °F /  17.3 °C 61.2 °F /  16.2 °C 29.9in /  1012.5hPa NW 2mph /  3.2km/h 2mph /  3.2km/h 93% 0.01in /  0.2mm 473 W/m2
17:56 63.7 °F /  17.6 °C 61.7 °F /  16.5 °C 29.9in /  1012.5hPa Calm   3mph /  4.8km/h 93% 0.01in /  0.2mm 323 W/m2
18:01 63.9 °F /  17.7 °C 61.5 °F /  16.4 °C 29.9in /  1012.5hPa Calm   2mph /  3.2km/h 92% 0.01in /  0.2mm 297 W/m2
18:06 64.2 °F /  17.9 °C 61.9 °F /  16.6 °C 29.9in /  1012.9hPa ESE 0.9mph /  1.4km/h 4mph /  6.4km/h 92% 0.01in /  0.2mm 255 W/m2
18:11 64.4 °F /  18 °C 61.7 °F /  16.5 °C 29.9in /  1012.9hPa Calm   2mph /  3.2km/h 91% 0.01in /  0.2mm 174 W/m2
18:16 64.6 °F /  18.1 °C 61.9 °F /  16.6 °C 29.9in /  1012.9hPa ESE 2.9mph /  4.7km/h 4mph /  6.4km/h 91% 0in /  0.0mm 146 W/m2
18:21 64.6 °F /  18.1 °C 61.5 °F /  16.4 °C 29.9in /  1012.9hPa East 0.9mph /  1.4km/h 3mph /  4.8km/h 90% 0in /  0.0mm 160 W/m2
18:26 64.4 °F /  18 °C 61.3 °F /  16.3 °C 29.9in /  1012.9hPa Calm   2mph /  3.2km/h 90% 0in /  0.0mm 142 W/m2
18:31 64.2 °F /  17.9 °C 61 °F /  16.1 °C 29.9in /  1012.9hPa NNE 0.9mph /  1.4km/h 3mph /  4.8km/h 89% 0in /  0.0mm 139 W/m2
18:36 64.2 °F /  17.9 °C 61.2 °F /  16.2 °C 29.9in /  1012.9hPa North 0.9mph /  1.4km/h 2mph /  3.2km/h 90% 0in /  0.0mm 211 W/m2
18:41 64.4 °F /  18 °C 61.2 °F /  16.2 °C 29.9in /  1012.9hPa ENE 0.9mph /  1.4km/h 3mph /  4.8km/h 89% 0in /  0.0mm 193 W/m2
18:46 64.6 °F /  18.1 °C 61.3 °F /  16.3 °C 29.9in /  1012.9hPa Calm   2mph /  3.2km/h 89% 0in /  0.0mm 267 W/m2
18:51 64.9 °F /  18.3 °C 61.9 °F /  16.6 °C 29.9in /  1012.9hPa ENE 2mph /  3.2km/h 3mph /  4.8km/h 90% 0in /  0.0mm 285 W/m2
18:56 65.1 °F /  18.4 °C 61.9 °F /  16.6 °C 29.9in /  1012.9hPa ENE 2mph /  3.2km/h 4mph /  6.4km/h 89% 0in /  0.0mm 109 W/m2
19:01 64.9 °F /  18.3 °C 61.7 °F /  16.5 °C 29.9in /  1012.9hPa East 2mph /  3.2km/h 3mph /  4.8km/h 89% 0in /  0.0mm 105 W/m2
19:06 64.8 °F /  18.2 °C 61.2 °F /  16.2 °C 29.9in /  1012.9hPa ESE 0.9mph /  1.4km/h 4mph /  6.4km/h 88% 0in /  0.0mm 149 W/m2
19:11 64.9 °F /  18.3 °C 61.7 °F /  16.5 °C 29.9in /  1012.9hPa East 2mph /  3.2km/h 2mph /  3.2km/h 89% 0in /  0.0mm 234 W/m2
19:16 65.1 °F /  18.4 °C 61.5 °F /  16.4 °C 29.9in /  1013.2hPa ESE 2mph /  3.2km/h 3mph /  4.8km/h 88% 0in /  0.0mm 116 W/m2
19:21 65.3 °F /  18.5 °C 61.7 °F /  16.5 °C 29.9in /  1013.2hPa NNE 2mph /  3.2km/h 4mph /  6.4km/h 88% 0in /  0.0mm 355 W/m2
19:26 65.5 °F /  18.6 °C 61.5 °F /  16.4 °C 29.9in /  1013.2hPa NNW 0.9mph /  1.4km/h 5mph /  8km/h 87% 0in /  0.0mm 218 W/m2
19:31 65.5 °F /  18.6 °C 61.5 °F /  16.4 °C 29.9in /  1013.2hPa West 6mph /  9.7km/h 7mph /  11.3km/h 87% 0in /  0.0mm 104 W/m2
19:36 65.1 °F /  18.4 °C 61.2 °F /  16.2 °C 29.9in /  1013.2hPa NE 2mph /  3.2km/h 4mph /  6.4km/h 87% 0in /  0.0mm 93 W/m2
19:41 65.1 °F /  18.4 °C 61.5 °F /  16.4 °C 29.9in /  1013.2hPa NW 6mph /  9.7km/h 6mph /  9.7km/h 88% 0in /  0.0mm 158 W/m2
19:46 65.3 °F /  18.5 °C 61.3 °F /  16.3 °C 29.9in /  1013.2hPa ENE 4mph /  6.4km/h 4mph /  6.4km/h 87% 0in /  0.0mm 158 W/m2
19:51 65.5 °F /  18.6 °C 61.5 °F /  16.4 °C 29.9in /  1013.2hPa NE 2mph /  3.2km/h 4mph /  6.4km/h 87% 0in /  0.0mm 74 W/m2
19:56 65.3 °F /  18.5 °C 61.3 °F /  16.3 °C 29.9in /  1013.2hPa ENE 0.9mph /  1.4km/h 2mph /  3.2km/h 87% 0in /  0.0mm 90 W/m2
20:01 65.1 °F /  18.4 °C 61.2 °F /  16.2 °C 29.9in /  1013.2hPa East 0.9mph /  1.4km/h 2mph /  3.2km/h 87% 0in /  0.0mm 53 W/m2
20:06 65.1 °F /  18.4 °C 61.5 °F /  16.4 °C 29.9in /  1013.5hPa North 0.9mph /  1.4km/h 1mph /  1.6km/h 88% 0in /  0.0mm 130 W/m2
20:11 65.1 °F /  18.4 °C 61.2 °F /  16.2 °C 29.9in /  1013.5hPa Calm   4mph /  6.4km/h 87% 0in /  0.0mm 148 W/m2
20:16 65.5 °F /  18.6 °C 61.5 °F /  16.4 °C 29.9in /  1013.2hPa NE 0.9mph /  1.4km/h 5mph /  8km/h 87% 0in /  0.0mm 132 W/m2
20:21 65.5 °F /  18.6 °C 61.5 °F /  16.4 °C 29.9in /  1013.2hPa NE 0.9mph /  1.4km/h 3mph /  4.8km/h 87% 0in /  0.0mm 125 W/m2
20:26 65.5 °F /  18.6 °C 61.5 °F /  16.4 °C 29.9in /  1013.2hPa Calm   5mph /  8km/h 87% 0in /  0.0mm 111 W/m2
20:31 65.5 °F /  18.6 °C 61.5 °F /  16.4 °C 29.9in /  1013.2hPa Calm     87% 0in /  0.0mm 77 W/m2
20:36 65.3 °F /  18.5 °C 61.3 °F /  16.3 °C 29.9in /  1013.5hPa ENE 2mph /  3.2km/h 3mph /  4.8km/h 87% 0in /  0.0mm 86 W/m2
20:41 65.1 °F /  18.4 °C 61.2 °F /  16.2 °C 29.9in /  1013.5hPa East 0.9mph /  1.4km/h 4mph /  6.4km/h 87% 0in /  0.0mm 91 W/m2
20:46 65.1 °F /  18.4 °C 61.2 °F /  16.2 °C 29.9in /  1013.5hPa NW 0.9mph /  1.4km/h 3mph /  4.8km/h 87% 0in /  0.0mm 67 W/m2
20:51 65.1 °F /  18.4 °C 61.2 °F /  16.2 °C 29.9in /  1013.5hPa NW 2mph /  3.2km/h 2mph /  3.2km/h 87% 0in /  0.0mm 51 W/m2
20:56 64.8 °F /  18.2 °C 60.4 °F /  15.8 °C 29.9in /  1013.5hPa NW 0.9mph /  1.4km/h 4mph /  6.4km/h 86% 0in /  0.0mm 28 W/m2
21:01 64 °F /  17.8 °C 60.1 °F /  15.6 °C 29.9in /  1013.5hPa West 4mph /  6.4km/h 4mph /  6.4km/h 87% 0in /  0.0mm 19 W/m2
21:06 63.7 °F /  17.6 °C 60.1 °F /  15.6 °C 29.9in /  1013.5hPa NW 2.9mph /  4.7km/h 3mph /  4.8km/h 88% 0in /  0.0mm 21 W/m2
21:11 63.3 °F /  17.4 °C 60.1 °F /  15.6 °C 29.9in /  1013.9hPa NNW 0.9mph /  1.4km/h 3mph /  4.8km/h 89% 0in /  0.0mm 14 W/m2
21:16 63 °F /  17.2 °C 59.9 °F /  15.5 °C 29.9in /  1013.9hPa NNW 4mph /  6.4km/h 4mph /  6.4km/h 90% 0in /  0.0mm 11 W/m2
21:21 62.8 °F /  17.1 °C 59.7 °F /  15.4 °C 29.9in /  1013.9hPa ENE 0.9mph /  1.4km/h 4mph /  6.4km/h 90% 0in /  0.0mm 7 W/m2
21:26 62.6 °F /  17 °C 59.5 °F /  15.3 °C 30in /  1014.2hPa Calm     90% 0in /  0.0mm 5 W/m2
21:31 62.6 °F /  17 °C 59.9 °F /  15.5 °C 30in /  1014.2hPa West 2mph /  3.2km/h 3mph /  4.8km/h 91% 0in /  0.0mm 5 W/m2
21:36 62.4 °F /  16.9 °C 59.7 °F /  15.4 °C 30in /  1014.6hPa WNW 2mph /  3.2km/h 3mph /  4.8km/h 91% 0in /  0.0mm 0 W/m2
21:41 62.2 °F /  16.8 °C 59.5 °F /  15.3 °C 30in /  1014.6hPa ENE 2mph /  3.2km/h 4mph /  6.4km/h 91% 0in /  0.0mm 0 W/m2
21:46 62.2 °F /  16.8 °C 59.5 °F /  15.3 °C 30in /  1014.6hPa NE 0.9mph /  1.4km/h 3mph /  4.8km/h 91% 0in /  0.0mm 0 W/m2
21:51 62.2 °F /  16.8 °C 59.9 °F /  15.5 °C 30in /  1014.6hPa NNE 0.9mph /  1.4km/h 4mph /  6.4km/h 92% 0in /  0.0mm 0 W/m2
21:56 62.1 °F /  16.7 °C 59.7 °F /  15.4 °C 30in /  1014.6hPa ENE 0.9mph /  1.4km/h 3mph /  4.8km/h 92% 0in /  0.0mm 0 W/m2
22:01 62.1 °F /  16.7 °C 59.4 °F /  15.2 °C 30in /  1014.6hPa North 0.9mph /  1.4km/h 3mph /  4.8km/h 91% 0in /  0.0mm 0 W/m2
22:07 62.1 °F /  16.7 °C 59.4 °F /  15.2 °C 30in /  1014.6hPa Calm   1mph /  1.6km/h 91% 0in /  0.0mm 0 W/m2
22:12 61.9 °F /  16.6 °C 59.5 °F /  15.3 °C 30in /  1014.6hPa Calm   3mph /  4.8km/h 92% 0in /  0.0mm 0 W/m2
22:17 61.9 °F /  16.6 °C 59.5 °F /  15.3 °C 30in /  1014.9hPa Calm   2mph /  3.2km/h 92% 0in /  0.0mm 0 W/m2
22:22 61.7 °F /  16.5 °C 59.4 °F /  15.2 °C 30in /  1014.9hPa NNW 0.9mph /  1.4km/h 2mph /  3.2km/h 92% 0in /  0.0mm 0 W/m2
22:27 61.5 °F /  16.4 °C 59.2 °F /  15.1 °C 30in /  1014.9hPa NE 0.9mph /  1.4km/h 1mph /  1.6km/h 92% 0in /  0.0mm 0 W/m2
22:32 61.5 °F /  16.4 °C 59.2 °F /  15.1 °C 30in /  1015.2hPa NE 2mph /  3.2km/h 2mph /  3.2km/h 92% 0in /  0.0mm 0 W/m2
22:37 61.5 °F /  16.4 °C 59.2 °F /  15.1 °C 30in /  1014.9hPa Calm   1mph /  1.6km/h 92% 0in /  0.0mm 0 W/m2
22:42 61.3 °F /  16.3 °C 59 °F /  15 °C 30in /  1014.9hPa East 0.9mph /  1.4km/h 2mph /  3.2km/h 92% 0in /  0.0mm 0 W/m2
22:47 61.3 °F /  16.3 °C 59 °F /  15 °C 30in /  1014.9hPa East 0.9mph /  1.4km/h 1mph /  1.6km/h 92% 0in /  0.0mm 0 W/m2
22:52 61.2 °F /  16.2 °C 58.8 °F /  14.9 °C 30in /  1014.9hPa Calm   1mph /  1.6km/h 92% 0in /  0.0mm 0 W/m2
22:57 61.2 °F /  16.2 °C 59.2 °F /  15.1 °C 30in /  1014.9hPa Calm   2mph /  3.2km/h 93% 0in /  0.0mm 0 W/m2
23:02 61.2 °F /  16.2 °C 59.2 °F /  15.1 °C 30in /  1014.9hPa NE 2mph /  3.2km/h 2mph /  3.2km/h 93% 0in /  0.0mm 0 W/m2
23:07 61.2 °F /  16.2 °C 59.2 °F /  15.1 °C 30in /  1014.9hPa NW 2mph /  3.2km/h 3mph /  4.8km/h 93% 0in /  0.0mm 0 W/m2
23:12 61 °F /  16.1 °C 59 °F /  15 °C 30in /  1014.9hPa WSW 4mph /  6.4km/h 5mph /  8km/h 93% 0in /  0.0mm 0 W/m2
23:17 61 °F /  16.1 °C 59 °F /  15 °C 30in /  1014.9hPa WNW 2mph /  3.2km/h 4mph /  6.4km/h 93% 0in /  0.0mm 0 W/m2
23:22 60.6 °F /  15.9 °C 58.6 °F /  14.8 °C 30in /  1014.9hPa West 2mph /  3.2km/h 4mph /  6.4km/h 93% 0in /  0.0mm 0 W/m2
23:27 60.6 °F /  15.9 °C 58.6 °F /  14.8 °C 30in /  1014.9hPa Calm   1mph /  1.6km/h 93% 0in /  0.0mm 0 W/m2
23:32 60.6 °F /  15.9 °C 58.6 °F /  14.8 °C 30in /  1015.2hPa Calm     93% 0in /  0.0mm 0 W/m2
23:37 60.6 °F /  15.9 °C 58.6 °F /  14.8 °C 30in /  1014.9hPa Calm     93% 0in /  0.0mm 0 W/m2
23:42 60.6 °F /  15.9 °C 58.6 °F /  14.8 °C 30in /  1014.9hPa NW 2.9mph /  4.7km/h 6mph /  9.7km/h 93% 0in /  0.0mm 0 W/m2
23:47 60.6 °F /  15.9 °C 58.6 °F /  14.8 °C 30in /  1014.9hPa Calm   2mph /  3.2km/h 93% 0in /  0.0mm 0 W/m2
23:52 60.8 °F /  16 °C 58.8 °F /  14.9 °C 30in /  1015.2hPa Calm   4mph /  6.4km/h 93% 0in /  0.0mm 0 W/m2
23:57 61 °F /  16.1 °C 59 °F /  15 °C 30in /  1015.2hPa Calm     93% 0in /  0.0mm 0 W/m2
Juneau County Weather
Compliments of Weather Underground - 4 mb